createdAt,value
2023-04-08T00:00:17.069Z,84.40
2023-04-08T00:05:18.750Z,84.26
2023-04-08T00:10:20.924Z,84.13
2023-04-08T00:15:22.638Z,84.28
2023-04-08T00:20:25.325Z,84.39
2023-04-08T00:25:27.133Z,84.60
2023-04-08T00:30:29.122Z,84.88
2023-04-08T00:35:30.779Z,84.95
2023-04-08T00:40:32.367Z,85.18
2023-04-08T00:45:34.285Z,85.03
2023-04-08T00:50:36.342Z,85.13
2023-04-08T00:55:38.011Z,85.24
2023-04-08T01:00:45.900Z,85.27
2023-04-08T01:06:15.807Z,85.07
2023-04-08T01:11:18.465Z,84.85
2023-04-08T01:16:22.827Z,84.63
2023-04-08T01:21:27.214Z,84.70
2023-04-08T01:26:29.924Z,84.74
2023-04-08T01:31:32.516Z,84.66
2023-04-08T01:36:37.332Z,84.25
2023-04-08T01:41:41.171Z,84.09
2023-04-08T01:46:43.574Z,84.24
2023-04-08T01:51:48.386Z,84.68
2023-04-08T01:56:52.682Z,84.24
2023-04-08T02:01:57.185Z,83.99
2023-04-08T02:06:59.579Z,83.93
2023-04-08T02:12:01.773Z,83.83
2023-04-08T02:17:12.465Z,83.88
2023-04-08T02:22:24.338Z,83.86
2023-04-08T02:27:29.578Z,83.72
2023-04-08T02:32:33.228Z,83.43
2023-04-08T02:37:35.319Z,83.54
2023-04-08T02:42:36.993Z,83.37
2023-04-08T02:47:38.845Z,83.74
2023-04-08T02:52:41.288Z,83.85
2023-04-08T02:57:43.186Z,83.92
2023-04-08T03:02:45.318Z,83.99
2023-04-08T03:07:47.242Z,84.21
2023-04-08T03:12:49.112Z,84.30
2023-04-08T03:17:51.023Z,84.41
2023-04-08T03:22:52.749Z,84.37
2023-04-08T03:27:55.201Z,84.22
2023-04-08T03:32:57.110Z,84.24
2023-04-08T03:37:59.310Z,84.41
2023-04-08T03:43:01.221Z,84.27
2023-04-08T03:48:03.243Z,84.17
2023-04-08T03:53:05.091Z,84.37
2023-04-08T03:58:06.861Z,84.45
2023-04-08T04:07:11.991Z,84.46
2023-04-08T04:12:13.689Z,84.53
2023-04-08T04:17:15.775Z,84.55
2023-04-08T04:22:17.486Z,84.60
2023-04-08T04:27:19.127Z,84.51
2023-04-08T04:32:20.805Z,84.49
2023-04-08T04:37:22.524Z,84.49
2023-04-08T04:42:24.193Z,84.40
2023-04-08T04:47:26.417Z,84.32
2023-04-08T04:52:28.026Z,84.24
2023-04-08T04:57:29.665Z,84.10
2023-04-08T05:02:31.568Z,83.92
2023-04-08T05:07:37.026Z,83.63
2023-04-08T05:12:38.860Z,83.43
2023-04-08T05:17:40.900Z,83.27
2023-04-08T05:22:44.587Z,83.01
2023-04-08T05:27:46.990Z,82.93
2023-04-08T05:32:48.833Z,82.83
2023-04-08T05:37:50.628Z,82.92
2023-04-08T05:42:52.268Z,83.00
2023-04-08T05:47:54.279Z,83.04
2023-04-08T05:52:55.955Z,83.01
2023-04-08T05:57:57.522Z,83.03
2023-04-08T06:03:00.927Z,82.40
2023-04-08T06:08:03.020Z,82.09
2023-04-08T06:13:04.669Z,82.06
2023-04-08T06:18:06.849Z,81.76
2023-04-08T06:23:08.592Z,81.44
2023-04-08T06:28:10.329Z,81.29
2023-04-08T06:33:11.957Z,81.43
2023-04-08T06:38:13.612Z,81.38
2023-04-08T06:43:15.350Z,81.35
2023-04-08T06:48:17.029Z,80.89
2023-04-08T06:53:18.700Z,80.31
2023-04-08T06:58:20.606Z,79.71
2023-04-08T07:03:23.267Z,78.79
2023-04-08T07:08:25.092Z,78.18
2023-04-08T07:13:26.845Z,77.08
2023-04-08T07:18:29.239Z,75.06
2023-04-08T07:23:30.958Z,74.27
2023-04-08T07:28:32.764Z,75.36
2023-04-08T07:33:34.479Z,74.35
2023-04-08T07:38:37.845Z,73.58
2023-04-08T07:43:39.538Z,71.94
2023-04-08T07:48:41.176Z,69.96
2023-04-08T07:53:43.005Z,70.03
2023-04-08T07:58:44.849Z,69.35
2023-04-08T08:03:48.069Z,68.15
2023-04-08T08:08:50.131Z,68.57
2023-04-08T08:13:52.104Z,67.46
2023-04-08T08:18:54.034Z,66.00
2023-04-08T08:23:56.932Z,64.12
2023-04-08T08:28:58.675Z,64.04
2023-04-08T08:34:00.408Z,63.70
2023-04-08T08:39:02.302Z,64.02
2023-04-08T08:44:08.748Z,61.62
2023-04-08T08:49:11.747Z,63.43
2023-04-08T08:54:16.112Z,63.01
2023-04-08T08:59:17.784Z,60.34
2023-04-08T09:04:22.612Z,62.38
2023-04-08T09:09:25.578Z,62.10
2023-04-08T09:14:27.275Z,61.01
2023-04-08T09:19:28.968Z,60.18
2023-04-08T09:24:31.297Z,61.63
2023-04-08T09:29:36.407Z,59.19
2023-04-08T09:34:40.355Z,58.22
2023-04-08T09:39:42.122Z,60.25
2023-04-08T09:44:47.215Z,60.74
2023-04-08T09:49:58.504Z,58.07
2023-04-08T09:55:04.563Z,56.19
2023-04-08T10:00:17.762Z,57.16
2023-04-08T10:05:21.143Z,58.37
2023-04-08T10:10:23.743Z,57.87
2023-04-08T10:15:33.603Z,59.14
2023-04-08T10:20:38.353Z,58.02
2023-04-08T10:25:45.302Z,58.48
2023-04-08T10:30:48.604Z,56.66
2023-04-08T10:35:54.696Z,56.80
2023-04-08T10:40:56.800Z,58.54
2023-04-08T10:45:58.665Z,55.07
2023-04-08T10:51:05.279Z,57.55
2023-04-08T10:56:18.286Z,58.72
2023-04-08T11:01:20.206Z,56.55
2023-04-08T11:06:22.175Z,58.51
2023-04-08T11:11:29.444Z,56.02
2023-04-08T11:16:32.494Z,54.31
2023-04-08T11:21:38.717Z,55.92
2023-04-08T11:26:42.074Z,54.62
2023-04-08T11:31:44.301Z,53.11
2023-04-08T11:36:46.418Z,53.02
2023-04-08T11:41:48.235Z,53.20
2023-04-08T11:46:55.603Z,54.53
2023-04-08T11:51:59.358Z,55.15
2023-04-08T11:57:02.972Z,55.86
2023-04-08T12:02:05.297Z,54.73
2023-04-08T12:07:07.375Z,54.57
2023-04-08T12:12:09.038Z,55.25
2023-04-08T12:17:10.678Z,54.82
2023-04-08T12:22:12.474Z,54.42
2023-04-08T12:27:14.247Z,55.19
2023-04-08T12:32:16.340Z,55.67
2023-04-08T12:37:18.214Z,56.30
2023-04-08T12:42:19.928Z,56.56
2023-04-08T12:47:22.599Z,57.44
2023-04-08T12:52:25.397Z,57.80
2023-04-08T12:57:28.447Z,58.30
2023-04-08T13:02:30.744Z,59.23
2023-04-08T13:07:32.528Z,60.19
2023-04-08T13:12:34.186Z,61.51
2023-04-08T13:17:36.150Z,61.87
2023-04-08T13:22:37.991Z,62.26
2023-04-08T13:27:39.686Z,61.73
2023-04-08T13:32:41.573Z,63.69
2023-04-08T13:37:43.510Z,65.61
2023-04-08T13:42:45.260Z,66.70
2023-04-08T13:47:47.257Z,66.46
2023-04-08T13:52:48.965Z,66.37
2023-04-08T13:57:50.660Z,65.54
2023-04-08T14:02:52.834Z,65.37
2023-04-08T14:07:54.625Z,65.43
2023-04-08T14:12:56.286Z,65.24
2023-04-08T14:17:57.977Z,65.01
2023-04-08T14:22:59.720Z,65.86
2023-04-08T14:28:01.633Z,66.22
2023-04-08T14:33:05.304Z,66.16
2023-04-08T14:38:07.198Z,66.29
2023-04-08T14:43:08.914Z,66.69
2023-04-08T14:48:11.975Z,67.86
2023-04-08T14:53:13.683Z,68.90
2023-04-08T14:58:15.570Z,69.85
2023-04-08T15:03:18.840Z,69.48
2023-04-08T15:08:30.294Z,69.29
2023-04-08T15:13:32.018Z,68.84
2023-04-08T15:18:33.749Z,69.13
2023-04-08T15:23:35.522Z,69.68
2023-04-08T15:28:38.278Z,69.53
2023-04-08T15:33:41.558Z,69.40
2023-04-08T15:38:43.258Z,69.16
2023-04-08T15:43:46.175Z,68.63
2023-04-08T15:48:49.303Z,68.51
2023-04-08T15:53:51.673Z,68.62
2023-04-08T15:58:53.664Z,68.88
2023-04-08T16:03:55.874Z,68.60
2023-04-08T16:08:57.725Z,68.69
2023-04-08T16:13:59.410Z,68.50
2023-04-08T16:19:02.304Z,69.15
2023-04-08T16:24:05.743Z,69.62
2023-04-08T16:29:07.508Z,70.26
2023-04-08T16:34:09.161Z,70.88
2023-04-08T16:39:11.151Z,70.64
2023-04-08T16:44:12.926Z,70.97
2023-04-08T16:49:16.213Z,71.50
2023-04-08T16:54:19.313Z,71.86
2023-04-08T16:59:21.171Z,72.21
2023-04-08T17:04:22.854Z,72.40
2023-04-08T17:09:24.671Z,72.90
2023-04-08T17:14:27.373Z,73.23
2023-04-08T17:19:29.327Z,73.52
2023-04-08T17:24:31.003Z,73.85
2023-04-08T17:29:32.726Z,74.06
2023-04-08T17:34:34.437Z,74.16
2023-04-08T17:39:40.706Z,74.52
2023-04-08T17:44:42.774Z,75.03
2023-04-08T17:49:44.514Z,75.16
2023-04-08T17:54:46.437Z,75.17
2023-04-08T17:59:48.113Z,75.72
2023-04-08T18:04:51.887Z,75.98
2023-04-08T18:09:53.686Z,76.10
2023-04-08T18:14:55.401Z,76.22
2023-04-08T18:19:58.545Z,75.89
2023-04-08T18:25:00.712Z,75.64
2023-04-08T18:30:02.495Z,75.99
2023-04-08T18:35:04.373Z,76.22
2023-04-08T18:40:07.532Z,76.25
2023-04-08T18:45:09.668Z,76.51
2023-04-08T18:50:11.385Z,76.79
2023-04-08T18:55:13.259Z,76.95
2023-04-08T19:00:15.484Z,77.08
2023-04-08T19:05:17.924Z,77.23
2023-04-08T19:10:20.831Z,77.53
2023-04-08T19:15:22.625Z,77.61
2023-04-08T19:20:24.649Z,77.67
2023-04-08T19:25:26.586Z,77.72
2023-04-08T19:30:28.318Z,77.90
2023-04-08T19:35:30.351Z,77.97
2023-04-08T19:40:32.166Z,78.08
2023-04-08T19:45:34.410Z,78.24
2023-04-08T19:50:39.410Z,78.47
2023-04-08T19:55:41.298Z,78.52
2023-04-08T20:01:04.016Z,78.44
2023-04-08T20:06:05.710Z,78.59
2023-04-08T20:11:07.361Z,78.85
2023-04-08T20:16:09.104Z,78.71
2023-04-08T20:21:13.968Z,78.71
2023-04-08T20:26:16.738Z,78.70
2023-04-08T20:31:19.248Z,78.51
2023-04-08T20:36:22.114Z,78.57
2023-04-08T20:41:25.709Z,78.31
2023-04-08T20:46:27.624Z,77.82
2023-04-08T20:51:29.285Z,78.05
2023-04-08T20:56:31.017Z,77.95
2023-04-08T21:01:32.797Z,77.26
2023-04-08T21:06:34.837Z,77.13
2023-04-08T21:11:37.162Z,77.30
2023-04-08T21:16:38.903Z,77.10
2023-04-08T21:21:40.635Z,77.19
2023-04-08T21:26:42.304Z,77.05
2023-04-08T21:31:44.029Z,77.12
2023-04-08T21:36:46.085Z,77.27
2023-04-08T21:41:49.292Z,77.16
2023-04-08T21:46:51.300Z,77.16
2023-04-08T21:52:12.862Z,77.18
2023-04-08T21:57:14.407Z,77.80
2023-04-08T22:02:16.477Z,78.65
2023-04-08T22:07:18.430Z,78.59
2023-04-08T22:12:20.515Z,79.40
2023-04-08T22:17:22.209Z,79.49
2023-04-08T22:22:23.932Z,80.38
2023-04-08T22:27:28.252Z,81.16
2023-04-08T22:32:30.023Z,81.88
2023-04-08T22:37:32.245Z,82.04
2023-04-08T22:42:33.903Z,81.60
2023-04-08T22:47:36.449Z,81.58
2023-04-08T22:52:38.170Z,82.51
2023-04-08T22:57:39.834Z,82.63
2023-04-08T23:02:41.608Z,81.24
2023-04-08T23:07:43.722Z,81.19
2023-04-08T23:13:15.449Z,80.89
2023-04-08T23:18:17.093Z,80.86
2023-04-08T23:23:18.708Z,80.23
2023-04-08T23:28:20.608Z,80.02
2023-04-08T23:33:22.337Z,80.32
2023-04-08T23:38:24.061Z,80.70
2023-04-08T23:43:26.710Z,81.37
2023-04-08T23:48:28.405Z,81.88
2023-04-08T23:53:31.911Z,82.23
2023-04-08T23:58:33.903Z,82.87
